Brilon/Hochsauerlandkreis Airport


Codes: EDKO/
Name: Brilon/Hochsauerlandkreis Airport
City: Brilon
Country: Germany
Elevation: 1509 ft.

Photos at Brilon/Hochsauerlandkreis Airport


   Photos courtesy of SpottingLog. You can add your own sightings and photos by signing up for a free trial today.



No photos found.

Weather at Brilon/Hochsauerlandkreis Airport


Time (UTC)DescriptionTempratureWindCloud coverageVisibilityPressureHumidity
18-Apr-2024 00:00Light Rain2°C2 mph, N96%8393m1012hPa98%
18-Apr-2024 03:00Light Rain2°C4 mph, N99%10000m1013hPa96%
18-Apr-2024 06:00Overcast Clouds2°C4 mph, N100%0m1016hPa95%
18-Apr-2024 09:00Light Rain3°C4 mph, N99%10000m1018hPa93%
18-Apr-2024 12:00Light Rain7°C7 mph, NW91%10000m1018hPa60%
18-Apr-2024 15:00Overcast Clouds8°C11 mph, NW86%10000m1018hPa58%
18-Apr-2024 18:00Light Rain4°C4 mph, W72%10000m1018hPa72%
18-Apr-2024 21:00Overcast Clouds2°C4 mph, SW100%10000m1019hPa91%
19-Apr-2024 00:00Overcast Clouds3°C9 mph, SW100%10000m1017hPa83%
19-Apr-2024 03:00Light Rain2°C11 mph, SW100%8641m1014hPa88%
19-Apr-2024 06:00Moderate Rain1°C16 mph, SW100%98m1010hPa97%
19-Apr-2024 09:00Light Rain3°C11 mph, W100%372m1007hPa98%
19-Apr-2024 12:00Light Rain5°C13 mph, NW100%9389m1006hPa96%
19-Apr-2024 15:00Light Rain4°C16 mph, NW100%10000m1006hPa91%
19-Apr-2024 18:00Light Rain3°C18 mph, W79%6790m1006hPa96%
19-Apr-2024 21:00Light Rain3°C18 mph, N100%0m1008hPa98%
20-Apr-2024 00:00Light Rain3°C16 mph, N100%0m1010hPa99%
20-Apr-2024 03:00Snow1°C13 mph, N100%0m1015hPa99%
20-Apr-2024 06:00Light Snow1°C11 mph, N100%0m1018hPa98%
20-Apr-2024 09:00Light Snow3°C11 mph, N100%10000m1020hPa88%
20-Apr-2024 12:00Light Rain5°C11 mph, NW94%10000m1022hPa58%
20-Apr-2024 15:00Light Rain6°C11 mph, NW98%2550m1022hPa69%
20-Apr-2024 18:00Light Rain3°C7 mph, NW97%10000m1023hPa95%
20-Apr-2024 21:00Light Rain2°C4 mph, NW100%1687m1024hPa97%
21-Apr-2024 00:00Light Snow-1°C4 mph, NW97%10000m1024hPa99%
21-Apr-2024 03:00Overcast Clouds-0°C2 mph, N100%10000m1024hPa99%
21-Apr-2024 06:00Light Snow1°C2 mph, N99%0m1025hPa100%
21-Apr-2024 09:00Light Snow2°C9 mph, E99%10000m1026hPa88%
21-Apr-2024 12:00Light Snow5°C9 mph, E98%10000m1025hPa67%
21-Apr-2024 15:00Light Rain5°C9 mph, E100%10000m1025hPa69%
21-Apr-2024 18:00Light Snow1°C7 mph, E99%10000m1026hPa91%
21-Apr-2024 21:00Scattered Clouds-1°C4 mph, NE43%10000m1028hPa95%
22-Apr-2024 00:00Broken Clouds-3°C2 mph, NE56%10000m1029hPa97%
22-Apr-2024 03:00Scattered Clouds-4°C2 mph, NE27%10000m1028hPa99%
22-Apr-2024 06:00Scattered Clouds-2°C7 mph, NE30%10000m1028hPa94%
22-Apr-2024 09:00Light Snow-0°C9 mph, NE79%3471m1028hPa89%
22-Apr-2024 12:00Light Snow1°C7 mph, NE90%4623m1027hPa78%
22-Apr-2024 15:00Overcast Clouds3°C9 mph, NE100%10000m1025hPa69%
22-Apr-2024 18:00Light Snow2°C9 mph, NE93%10000m1025hPa89%
22-Apr-2024 21:00Overcast Clouds2°C9 mph, NE85%10000m1025hPa96%